sensor_id;sensor_type;location;lat;lon;timestamp;P1;durP1;ratioP1;P2;durP2;ratioP2
70122;SDS011;57489;37.404;24.920;2023-04-23T00:00:39;8.05;;;4.72;;
70122;SDS011;57489;37.404;24.920;2023-04-23T00:05:39;7.77;;;4.10;;
70122;SDS011;57489;37.404;24.920;2023-04-23T00:10:41;7.30;;;4.00;;
70122;SDS011;57489;37.404;24.920;2023-04-23T00:15:42;9.03;;;4.37;;
70122;SDS011;57489;37.404;24.920;2023-04-23T00:20:42;8.25;;;3.97;;
70122;SDS011;57489;37.404;24.920;2023-04-23T00:25:43;7.60;;;4.10;;
70122;SDS011;57489;37.404;24.920;2023-04-23T00:30:43;7.30;;;4.10;;
70122;SDS011;57489;37.404;24.920;2023-04-23T00:35:44;7.70;;;4.10;;
70122;SDS011;57489;37.404;24.920;2023-04-23T00:40:44;7.73;;;4.73;;
70122;SDS011;57489;37.404;24.920;2023-04-23T00:45:45;8.53;;;4.03;;
70122;SDS011;57489;37.404;24.920;2023-04-23T00:50:46;7.13;;;3.83;;
70122;SDS011;57489;37.404;24.920;2023-04-23T00:55:47;6.67;;;3.63;;
70122;SDS011;57489;37.404;24.920;2023-04-23T01:00:47;8.90;;;4.00;;
70122;SDS011;57489;37.404;24.920;2023-04-23T01:05:49;6.65;;;3.90;;
70122;SDS011;57489;37.404;24.920;2023-04-23T01:10:49;7.40;;;4.27;;
70122;SDS011;57489;37.404;24.920;2023-04-23T01:15:52;7.07;;;3.65;;
70122;SDS011;57489;37.404;24.920;2023-04-23T01:20:52;7.83;;;4.40;;
70122;SDS011;57489;37.404;24.920;2023-04-23T01:25:53;7.43;;;4.10;;
70122;SDS011;57489;37.404;24.920;2023-04-23T01:30:53;6.70;;;3.70;;
70122;SDS011;57489;37.404;24.920;2023-04-23T01:35:55;6.53;;;4.03;;
70122;SDS011;57489;37.404;24.920;2023-04-23T01:40:56;7.10;;;4.30;;
70122;SDS011;57489;37.404;24.920;2023-04-23T01:45:57;5.93;;;3.23;;
70122;SDS011;57489;37.404;24.920;2023-04-23T01:50:58;6.20;;;3.45;;
70122;SDS011;57489;37.404;24.920;2023-04-23T01:55:59;6.80;;;3.73;;
70122;SDS011;57489;37.404;24.920;2023-04-23T02:01:01;7.43;;;3.20;;
70122;SDS011;57489;37.404;24.920;2023-04-23T02:06:01;5.80;;;3.30;;
70122;SDS011;57489;37.404;24.920;2023-04-23T02:11:02;6.00;;;3.47;;
70122;SDS011;57489;37.404;24.920;2023-04-23T02:16:02;8.63;;;3.90;;
70122;SDS011;57489;37.404;24.920;2023-04-23T02:21:03;6.40;;;3.30;;
70122;SDS011;57489;37.404;24.920;2023-04-23T02:26:04;6.47;;;3.27;;
70122;SDS011;57489;37.404;24.920;2023-04-23T02:31:04;6.80;;;3.33;;
70122;SDS011;57489;37.404;24.920;2023-04-23T02:36:05;6.83;;;3.80;;
70122;SDS011;57489;37.404;24.920;2023-04-23T02:41:05;6.15;;;3.10;;
70122;SDS011;57489;37.404;24.920;2023-04-23T02:46:06;6.07;;;2.90;;
70122;SDS011;57489;37.404;24.920;2023-04-23T02:51:08;6.53;;;3.27;;
70122;SDS011;57489;37.404;24.920;2023-04-23T02:56:10;6.75;;;3.60;;
70122;SDS011;57489;37.404;24.920;2023-04-23T03:01:10;5.67;;;3.30;;
70122;SDS011;57489;37.404;24.920;2023-04-23T03:06:11;7.10;;;3.63;;
70122;SDS011;57489;37.404;24.920;2023-04-23T03:11:11;6.03;;;3.20;;
70122;SDS011;57489;37.404;24.920;2023-04-23T03:16:12;6.50;;;3.30;;
70122;SDS011;57489;37.404;24.920;2023-04-23T03:21:12;6.30;;;3.20;;
70122;SDS011;57489;37.404;24.920;2023-04-23T03:26:13;6.00;;;3.40;;
70122;SDS011;57489;37.404;24.920;2023-04-23T03:31:13;5.87;;;3.00;;
70122;SDS011;57489;37.404;24.920;2023-04-23T03:36:13;5.97;;;3.20;;
70122;SDS011;57489;37.404;24.920;2023-04-23T03:41:14;6.07;;;3.10;;
70122;SDS011;57489;37.404;24.920;2023-04-23T03:46:14;5.77;;;3.13;;
70122;SDS011;57489;37.404;24.920;2023-04-23T03:51:15;5.53;;;3.30;;
70122;SDS011;57489;37.404;24.920;2023-04-23T03:56:15;5.97;;;3.33;;
70122;SDS011;57489;37.404;24.920;2023-04-23T04:01:16;5.93;;;3.30;;
70122;SDS011;57489;37.404;24.920;2023-04-23T04:06:16;5.05;;;2.75;;
70122;SDS011;57489;37.404;24.920;2023-04-23T04:11:17;7.57;;;3.40;;
70122;SDS011;57489;37.404;24.920;2023-04-23T04:16:17;6.27;;;3.10;;
70122;SDS011;57489;37.404;24.920;2023-04-23T04:21:18;5.77;;;3.20;;
70122;SDS011;57489;37.404;24.920;2023-04-23T04:26:18;6.33;;;2.90;;
70122;SDS011;57489;37.404;24.920;2023-04-23T04:31:19;6.23;;;3.40;;
70122;SDS011;57489;37.404;24.920;2023-04-23T04:36:19;5.93;;;3.10;;
70122;SDS011;57489;37.404;24.920;2023-04-23T04:41:21;7.83;;;3.10;;
70122;SDS011;57489;37.404;24.920;2023-04-23T04:46:21;6.45;;;3.20;;
70122;SDS011;57489;37.404;24.920;2023-04-23T04:51:22;6.60;;;3.20;;
70122;SDS011;57489;37.404;24.920;2023-04-23T04:56:22;5.97;;;3.20;;
70122;SDS011;57489;37.404;24.920;2023-04-23T05:01:23;6.97;;;3.20;;
70122;SDS011;57489;37.404;24.920;2023-04-23T05:06:24;6.05;;;3.05;;
70122;SDS011;57489;37.404;24.920;2023-04-23T05:11:24;6.53;;;3.20;;
70122;SDS011;57489;37.404;24.920;2023-04-23T05:16:25;5.83;;;3.00;;
70122;SDS011;57489;37.404;24.920;2023-04-23T05:21:25;5.57;;;2.80;;
70122;SDS011;57489;37.404;24.920;2023-04-23T05:26:26;6.20;;;3.20;;
70122;SDS011;57489;37.404;24.920;2023-04-23T05:31:26;5.87;;;2.83;;
70122;SDS011;57489;37.404;24.920;2023-04-23T05:36:27;5.27;;;2.60;;
70122;SDS011;57489;37.404;24.920;2023-04-23T05:41:27;6.70;;;2.53;;
70122;SDS011;57489;37.404;24.920;2023-04-23T05:46:28;7.77;;;3.23;;
70122;SDS011;57489;37.404;24.920;2023-04-23T05:51:28;6.40;;;2.90;;
70122;SDS011;57489;37.404;24.920;2023-04-23T05:56:29;5.87;;;2.87;;
70122;SDS011;57489;37.404;24.920;2023-04-23T06:01:29;5.63;;;2.77;;
70122;SDS011;57489;37.404;24.920;2023-04-23T06:06:29;5.20;;;2.63;;
70122;SDS011;57489;37.404;24.920;2023-04-23T06:11:30;6.00;;;2.87;;
70122;SDS011;57489;37.404;24.920;2023-04-23T06:16:31;12.60;;;2.77;;
70122;SDS011;57489;37.404;24.920;2023-04-23T06:21:31;5.73;;;2.70;;
70122;SDS011;57489;37.404;24.920;2023-04-23T06:26:32;5.90;;;2.80;;
70122;SDS011;57489;37.404;24.920;2023-04-23T06:31:32;5.80;;;3.00;;
70122;SDS011;57489;37.404;24.920;2023-04-23T06:36:33;6.80;;;2.60;;
70122;SDS011;57489;37.404;24.920;2023-04-23T06:41:33;7.30;;;2.80;;
70122;SDS011;57489;37.404;24.920;2023-04-23T06:46:35;5.47;;;2.63;;
70122;SDS011;57489;37.404;24.920;2023-04-23T06:51:36;7.57;;;3.23;;
70122;SDS011;57489;37.404;24.920;2023-04-23T06:56:36;8.77;;;2.63;;
70122;SDS011;57489;37.404;24.920;2023-04-23T07:01:36;6.50;;;3.33;;
70122;SDS011;57489;37.404;24.920;2023-04-23T07:06:37;7.00;;;2.90;;
70122;SDS011;57489;37.404;24.920;2023-04-23T07:11:37;8.57;;;3.30;;
70122;SDS011;57489;37.404;24.920;2023-04-23T07:16:38;9.80;;;3.00;;
70122;SDS011;57489;37.404;24.920;2023-04-23T07:21:39;5.80;;;3.13;;
70122;SDS011;57489;37.404;24.920;2023-04-23T07:26:39;8.82;;;3.05;;
70122;SDS011;57489;37.404;24.920;2023-04-23T07:31:40;12.77;;;3.17;;
70122;SDS011;57489;37.404;24.920;2023-04-23T07:36:40;10.00;;;3.70;;
70122;SDS011;57489;37.404;24.920;2023-04-23T07:41:40;10.47;;;3.90;;
70122;SDS011;57489;37.404;24.920;2023-04-23T07:46:41;7.17;;;3.27;;
70122;SDS011;57489;37.404;24.920;2023-04-23T07:51:41;11.30;;;3.47;;
70122;SDS011;57489;37.404;24.920;2023-04-23T07:56:42;10.37;;;3.43;;
70122;SDS011;57489;37.404;24.920;2023-04-23T08:01:42;15.97;;;3.50;;
70122;SDS011;57489;37.404;24.920;2023-04-23T08:06:43;8.13;;;3.53;;
70122;SDS011;57489;37.404;24.920;2023-04-23T08:11:43;10.83;;;3.70;;
70122;SDS011;57489;37.404;24.920;2023-04-23T08:16:44;8.50;;;3.53;;
70122;SDS011;57489;37.404;24.920;2023-04-23T08:21:44;9.57;;;4.30;;
70122;SDS011;57489;37.404;24.920;2023-04-23T08:26:44;10.20;;;4.80;;
70122;SDS011;57489;37.404;24.920;2023-04-23T08:31:45;12.57;;;4.80;;
70122;SDS011;57489;37.404;24.920;2023-04-23T08:36:45;11.43;;;4.20;;
70122;SDS011;57489;37.404;24.920;2023-04-23T08:41:47;9.63;;;4.70;;
70122;SDS011;57489;37.404;24.920;2023-04-23T08:46:53;8.57;;;4.47;;
70122;SDS011;57489;37.404;24.920;2023-04-23T08:51:54;13.07;;;4.30;;
70122;SDS011;57489;37.404;24.920;2023-04-23T08:57:01;12.25;;;4.78;;
70122;SDS011;57489;37.404;24.920;2023-04-23T09:02:02;8.18;;;4.65;;
70122;SDS011;57489;37.404;24.920;2023-04-23T09:07:03;9.87;;;4.53;;
70122;SDS011;57489;37.404;24.920;2023-04-23T09:12:05;9.60;;;4.43;;
70122;SDS011;57489;37.404;24.920;2023-04-23T09:17:07;7.65;;;4.20;;
70122;SDS011;57489;37.404;24.920;2023-04-23T09:22:07;8.70;;;4.00;;
70122;SDS011;57489;37.404;24.920;2023-04-23T09:27:08;9.60;;;4.37;;
70122;SDS011;57489;37.404;24.920;2023-04-23T09:32:09;7.72;;;3.70;;
70122;SDS011;57489;37.404;24.920;2023-04-23T09:37:10;8.27;;;3.60;;
70122;SDS011;57489;37.404;24.920;2023-04-23T09:42:10;13.13;;;5.03;;
70122;SDS011;57489;37.404;24.920;2023-04-23T09:47:11;8.80;;;3.70;;
70122;SDS011;57489;37.404;24.920;2023-04-23T09:52:11;10.17;;;3.70;;
70122;SDS011;57489;37.404;24.920;2023-04-23T09:57:12;16.23;;;3.63;;
70122;SDS011;57489;37.404;24.920;2023-04-23T10:02:12;11.47;;;3.50;;
70122;SDS011;57489;37.404;24.920;2023-04-23T10:07:13;9.10;;;4.00;;
70122;SDS011;57489;37.404;24.920;2023-04-23T10:12:15;8.00;;;3.77;;
70122;SDS011;57489;37.404;24.920;2023-04-23T10:17:16;15.00;;;3.67;;
70122;SDS011;57489;37.404;24.920;2023-04-23T10:22:16;11.80;;;3.53;;
70122;SDS011;57489;37.404;24.920;2023-04-23T10:27:20;9.02;;;3.58;;
70122;SDS011;57489;37.404;24.920;2023-04-23T10:32:22;9.00;;;3.90;;
70122;SDS011;57489;37.404;24.920;2023-04-23T10:37:23;19.23;;;3.70;;
70122;SDS011;57489;37.404;24.920;2023-04-23T10:42:24;9.90;;;3.70;;
70122;SDS011;57489;37.404;24.920;2023-04-23T10:47:25;11.70;;;3.30;;
70122;SDS011;57489;37.404;24.920;2023-04-23T10:52:26;13.57;;;3.65;;
70122;SDS011;57489;37.404;24.920;2023-04-23T10:57:31;18.53;;;3.37;;
70122;SDS011;57489;37.404;24.920;2023-04-23T11:02:55;9.23;;;3.75;;
70122;SDS011;57489;37.404;24.920;2023-04-23T11:08:02;11.70;;;3.90;;
70122;SDS011;57489;37.404;24.920;2023-04-23T11:13:23;9.68;;;3.25;;
70122;SDS011;57489;37.404;24.920;2023-04-23T11:18:25;12.87;;;4.13;;
70122;SDS011;57489;37.404;24.920;2023-04-23T11:23:29;7.67;;;4.27;;
70122;SDS011;57489;37.404;24.920;2023-04-23T11:28:30;13.25;;;4.30;;
70122;SDS011;57489;37.404;24.920;2023-04-23T11:33:33;13.45;;;4.07;;
70122;SDS011;57489;37.404;24.920;2023-04-23T11:38:33;12.73;;;4.10;;
70122;SDS011;57489;37.404;24.920;2023-04-23T11:43:34;8.63;;;3.90;;
70122;SDS011;57489;37.404;24.920;2023-04-23T11:48:35;17.13;;;4.07;;
70122;SDS011;57489;37.404;24.920;2023-04-23T11:53:35;12.77;;;3.67;;
70122;SDS011;57489;37.404;24.920;2023-04-23T11:58:46;13.83;;;4.07;;
70122;SDS011;57489;37.404;24.920;2023-04-23T12:03:47;9.40;;;3.80;;
70122;SDS011;57489;37.404;24.920;2023-04-23T12:08:48;7.40;;;3.30;;
70122;SDS011;57489;37.404;24.920;2023-04-23T12:13:48;9.00;;;3.67;;
70122;SDS011;57489;37.404;24.920;2023-04-23T12:18:52;14.00;;;4.47;;
70122;SDS011;57489;37.404;24.920;2023-04-23T12:23:53;14.13;;;5.27;;
70122;SDS011;57489;37.404;24.920;2023-04-23T12:28:54;14.67;;;4.50;;
70122;SDS011;57489;37.404;24.920;2023-04-23T12:39:22;13.18;;;5.65;;
70122;SDS011;57489;37.404;24.920;2023-04-23T12:44:25;13.90;;;5.73;;
70122;SDS011;57489;37.404;24.920;2023-04-23T12:49:25;12.33;;;4.57;;
70122;SDS011;57489;37.404;24.920;2023-04-23T12:54:27;15.83;;;5.03;;
70122;SDS011;57489;37.404;24.920;2023-04-23T12:59:38;16.17;;;4.97;;
70122;SDS011;57489;37.404;24.920;2023-04-23T13:04:38;11.57;;;4.57;;
70122;SDS011;57489;37.404;24.920;2023-04-23T13:09:39;11.60;;;4.53;;
70122;SDS011;57489;37.404;24.920;2023-04-23T13:14:39;11.73;;;4.33;;
70122;SDS011;57489;37.404;24.920;2023-04-23T13:19:39;22.97;;;4.83;;
70122;SDS011;57489;37.404;24.920;2023-04-23T13:24:40;11.33;;;4.27;;
70122;SDS011;57489;37.404;24.920;2023-04-23T13:29:40;12.90;;;4.30;;
70122;SDS011;57489;37.404;24.920;2023-04-23T13:34:41;9.17;;;3.57;;
70122;SDS011;57489;37.404;24.920;2023-04-23T13:39:42;10.90;;;4.00;;
70122;SDS011;57489;37.404;24.920;2023-04-23T13:44:42;16.60;;;5.00;;
70122;SDS011;57489;37.404;24.920;2023-04-23T13:49:43;18.93;;;4.90;;
70122;SDS011;57489;37.404;24.920;2023-04-23T13:54:43;21.77;;;5.13;;
70122;SDS011;57489;37.404;24.920;2023-04-23T13:59:43;21.27;;;5.13;;
70122;SDS011;57489;37.404;24.920;2023-04-23T14:04:44;17.63;;;5.37;;
70122;SDS011;57489;37.404;24.920;2023-04-23T14:09:44;11.27;;;4.97;;
70122;SDS011;57489;37.404;24.920;2023-04-23T14:14:45;13.03;;;4.17;;
70122;SDS011;57489;37.404;24.920;2023-04-23T14:19:46;18.70;;;4.50;;
70122;SDS011;57489;37.404;24.920;2023-04-23T14:24:49;11.27;;;3.47;;
70122;SDS011;57489;37.404;24.920;2023-04-23T14:29:51;10.07;;;3.97;;
70122;SDS011;57489;37.404;24.920;2023-04-23T14:34:56;12.10;;;4.20;;
70122;SDS011;57489;37.404;24.920;2023-04-23T14:39:57;18.03;;;3.53;;
70122;SDS011;57489;37.404;24.920;2023-04-23T14:44:57;15.30;;;3.63;;
70122;SDS011;57489;37.404;24.920;2023-04-23T14:49:58;13.63;;;4.35;;
70122;SDS011;57489;37.404;24.920;2023-04-23T14:54:58;11.23;;;3.67;;
70122;SDS011;57489;37.404;24.920;2023-04-23T14:59:59;7.27;;;2.80;;
70122;SDS011;57489;37.404;24.920;2023-04-23T15:04:59;7.10;;;2.80;;
70122;SDS011;57489;37.404;24.920;2023-04-23T15:10:00;6.53;;;2.55;;
70122;SDS011;57489;37.404;24.920;2023-04-23T15:15:02;7.70;;;2.13;;
70122;SDS011;57489;37.404;24.920;2023-04-23T15:20:04;5.90;;;2.20;;
70122;SDS011;57489;37.404;24.920;2023-04-23T15:25:05;6.47;;;2.30;;
70122;SDS011;57489;37.404;24.920;2023-04-23T15:30:06;7.53;;;2.25;;
70122;SDS011;57489;37.404;24.920;2023-04-23T15:35:07;8.55;;;2.33;;
70122;SDS011;57489;37.404;24.920;2023-04-23T15:40:08;9.97;;;2.63;;
70122;SDS011;57489;37.404;24.920;2023-04-23T15:45:10;7.40;;;2.35;;
70122;SDS011;57489;37.404;24.920;2023-04-23T15:50:11;11.40;;;2.47;;
70122;SDS011;57489;37.404;24.920;2023-04-23T15:55:12;6.95;;;2.38;;
70122;SDS011;57489;37.404;24.920;2023-04-23T16:00:12;7.13;;;2.70;;
70122;SDS011;57489;37.404;24.920;2023-04-23T16:05:13;9.70;;;2.80;;
70122;SDS011;57489;37.404;24.920;2023-04-23T16:10:13;7.07;;;2.80;;
70122;SDS011;57489;37.404;24.920;2023-04-23T16:15:14;6.45;;;2.67;;
70122;SDS011;57489;37.404;24.920;2023-04-23T16:20:14;7.60;;;2.80;;
70122;SDS011;57489;37.404;24.920;2023-04-23T16:25:15;10.87;;;2.83;;
70122;SDS011;57489;37.404;24.920;2023-04-23T16:30:15;6.97;;;2.70;;
70122;SDS011;57489;37.404;24.920;2023-04-23T16:35:16;9.10;;;2.53;;
70122;SDS011;57489;37.404;24.920;2023-04-23T16:40:16;9.00;;;2.40;;
70122;SDS011;57489;37.404;24.920;2023-04-23T16:45:17;7.87;;;2.67;;
70122;SDS011;57489;37.404;24.920;2023-04-23T16:50:17;11.32;;;2.45;;
70122;SDS011;57489;37.404;24.920;2023-04-23T16:55:18;7.00;;;2.97;;
70122;SDS011;57489;37.404;24.920;2023-04-23T17:00:18;8.60;;;2.77;;
70122;SDS011;57489;37.404;24.920;2023-04-23T17:05:22;8.40;;;3.13;;
70122;SDS011;57489;37.404;24.920;2023-04-23T17:10:23;7.32;;;2.55;;
70122;SDS011;57489;37.404;24.920;2023-04-23T17:15:23;12.20;;;3.70;;
70122;SDS011;57489;37.404;24.920;2023-04-23T17:20:24;12.10;;;3.53;;
70122;SDS011;57489;37.404;24.920;2023-04-23T17:25:24;12.17;;;3.87;;
70122;SDS011;57489;37.404;24.920;2023-04-23T17:30:25;15.03;;;3.13;;
70122;SDS011;57489;37.404;24.920;2023-04-23T17:35:25;12.50;;;3.47;;
70122;SDS011;57489;37.404;24.920;2023-04-23T17:40:26;13.33;;;3.23;;
70122;SDS011;57489;37.404;24.920;2023-04-23T17:45:26;15.57;;;3.13;;
70122;SDS011;57489;37.404;24.920;2023-04-23T17:50:27;15.07;;;3.90;;
70122;SDS011;57489;37.404;24.920;2023-04-23T17:55:27;12.63;;;3.10;;
70122;SDS011;57489;37.404;24.920;2023-04-23T18:00:28;10.83;;;3.20;;
70122;SDS011;57489;37.404;24.920;2023-04-23T18:05:28;9.70;;;2.90;;
70122;SDS011;57489;37.404;24.920;2023-04-23T18:10:29;7.83;;;2.70;;
70122;SDS011;57489;37.404;24.920;2023-04-23T18:15:29;17.80;;;3.47;;
70122;SDS011;57489;37.404;24.920;2023-04-23T18:20:30;13.75;;;3.05;;
70122;SDS011;57489;37.404;24.920;2023-04-23T18:25:31;15.47;;;3.20;;
70122;SDS011;57489;37.404;24.920;2023-04-23T18:30:31;11.57;;;3.10;;
70122;SDS011;57489;37.404;24.920;2023-04-23T18:35:31;12.30;;;2.97;;
70122;SDS011;57489;37.404;24.920;2023-04-23T18:40:32;10.40;;;3.13;;
70122;SDS011;57489;37.404;24.920;2023-04-23T18:45:33;12.40;;;2.88;;
70122;SDS011;57489;37.404;24.920;2023-04-23T18:50:41;10.40;;;3.23;;
70122;SDS011;57489;37.404;24.920;2023-04-23T18:55:42;10.63;;;3.08;;
70122;SDS011;57489;37.404;24.920;2023-04-23T19:00:43;7.50;;;3.40;;
70122;SDS011;57489;37.404;24.920;2023-04-23T19:05:43;9.70;;;2.77;;
70122;SDS011;57489;37.404;24.920;2023-04-23T19:10:44;10.07;;;3.10;;
70122;SDS011;57489;37.404;24.920;2023-04-23T19:15:44;11.50;;;3.20;;
70122;SDS011;57489;37.404;24.920;2023-04-23T19:20:45;14.17;;;3.20;;
70122;SDS011;57489;37.404;24.920;2023-04-23T19:25:45;7.73;;;3.07;;
70122;SDS011;57489;37.404;24.920;2023-04-23T19:30:46;11.73;;;3.60;;
70122;SDS011;57489;37.404;24.920;2023-04-23T19:35:46;5.75;;;2.60;;
70122;SDS011;57489;37.404;24.920;2023-04-23T19:40:47;11.30;;;3.30;;
70122;SDS011;57489;37.404;24.920;2023-04-23T19:45:47;8.73;;;2.97;;
70122;SDS011;57489;37.404;24.920;2023-04-23T19:50:47;10.63;;;3.97;;
70122;SDS011;57489;37.404;24.920;2023-04-23T19:55:48;8.20;;;3.97;;
70122;SDS011;57489;37.404;24.920;2023-04-23T20:00:48;8.90;;;3.73;;
70122;SDS011;57489;37.404;24.920;2023-04-23T20:05:49;10.93;;;3.47;;
70122;SDS011;57489;37.404;24.920;2023-04-23T20:10:49;9.27;;;3.57;;
70122;SDS011;57489;37.404;24.920;2023-04-23T20:15:50;9.52;;;3.35;;
70122;SDS011;57489;37.404;24.920;2023-04-23T20:20:51;8.73;;;3.33;;
70122;SDS011;57489;37.404;24.920;2023-04-23T20:25:51;8.03;;;3.57;;
70122;SDS011;57489;37.404;24.920;2023-04-23T20:30:52;9.95;;;3.28;;
70122;SDS011;57489;37.404;24.920;2023-04-23T20:35:52;7.17;;;3.30;;
70122;SDS011;57489;37.404;24.920;2023-04-23T20:40:53;7.90;;;3.10;;
70122;SDS011;57489;37.404;24.920;2023-04-23T20:45:53;9.27;;;3.77;;
70122;SDS011;57489;37.404;24.920;2023-04-23T20:50:55;8.30;;;3.27;;
70122;SDS011;57489;37.404;24.920;2023-04-23T20:55:56;9.07;;;2.77;;
70122;SDS011;57489;37.404;24.920;2023-04-23T21:00:56;8.87;;;3.07;;
70122;SDS011;57489;37.404;24.920;2023-04-23T21:05:57;8.40;;;2.97;;
70122;SDS011;57489;37.404;24.920;2023-04-23T21:10:58;9.90;;;3.42;;
70122;SDS011;57489;37.404;24.920;2023-04-23T21:15:58;6.23;;;2.90;;
70122;SDS011;57489;37.404;24.920;2023-04-23T21:20:59;7.67;;;2.90;;
70122;SDS011;57489;37.404;24.920;2023-04-23T21:25:59;7.80;;;2.70;;
70122;SDS011;57489;37.404;24.920;2023-04-23T21:31:11;6.00;;;2.83;;
70122;SDS011;57489;37.404;24.920;2023-04-23T21:36:16;11.73;;;3.00;;
70122;SDS011;57489;37.404;24.920;2023-04-23T21:41:16;7.30;;;2.73;;
70122;SDS011;57489;37.404;24.920;2023-04-23T21:46:17;7.73;;;3.07;;
70122;SDS011;57489;37.404;24.920;2023-04-23T21:51:21;7.40;;;3.13;;
70122;SDS011;57489;37.404;24.920;2023-04-23T21:56:22;6.83;;;2.93;;
70122;SDS011;57489;37.404;24.920;2023-04-23T22:01:22;5.77;;;2.53;;
70122;SDS011;57489;37.404;24.920;2023-04-23T22:06:23;7.13;;;2.83;;
70122;SDS011;57489;37.404;24.920;2023-04-23T22:11:23;5.03;;;2.57;;
70122;SDS011;57489;37.404;24.920;2023-04-23T22:16:24;6.23;;;2.77;;
70122;SDS011;57489;37.404;24.920;2023-04-23T22:21:24;4.90;;;2.43;;
70122;SDS011;57489;37.404;24.920;2023-04-23T22:26:25;5.00;;;2.30;;
70122;SDS011;57489;37.404;24.920;2023-04-23T22:31:25;6.70;;;2.67;;
70122;SDS011;57489;37.404;24.920;2023-04-23T22:36:25;5.70;;;2.90;;
70122;SDS011;57489;37.404;24.920;2023-04-23T22:41:26;6.10;;;2.60;;
70122;SDS011;57489;37.404;24.920;2023-04-23T22:46:26;9.60;;;3.30;;
70122;SDS011;57489;37.404;24.920;2023-04-23T22:51:27;6.22;;;2.53;;
70122;SDS011;57489;37.404;24.920;2023-04-23T22:56:27;4.73;;;2.57;;
70122;SDS011;57489;37.404;24.920;2023-04-23T23:01:28;5.07;;;2.20;;
70122;SDS011;57489;37.404;24.920;2023-04-23T23:06:29;8.43;;;2.77;;
70122;SDS011;57489;37.404;24.920;2023-04-23T23:11:29;6.23;;;2.63;;
70122;SDS011;57489;37.404;24.920;2023-04-23T23:16:30;7.03;;;2.72;;
70122;SDS011;57489;37.404;24.920;2023-04-23T23:21:30;4.50;;;2.30;;
70122;SDS011;57489;37.404;24.920;2023-04-23T23:26:31;10.73;;;2.40;;
70122;SDS011;57489;37.404;24.920;2023-04-23T23:31:31;6.57;;;2.67;;
70122;SDS011;57489;37.404;24.920;2023-04-23T23:36:32;4.10;;;2.30;;
70122;SDS011;57489;37.404;24.920;2023-04-23T23:41:33;5.37;;;2.60;;
70122;SDS011;57489;37.404;24.920;2023-04-23T23:46:33;6.30;;;2.53;;
70122;SDS011;57489;37.404;24.920;2023-04-23T23:51:34;7.80;;;2.83;;
70122;SDS011;57489;37.404;24.920;2023-04-23T23:56:34;5.10;;;2.28;;
